createdAt,value
2017-11-09T00:00:18.931Z,80.55
2017-11-09T00:02:57.377Z,80.31
2017-11-09T00:05:40.343Z,80.64
2017-11-09T00:08:19.398Z,80.53
2017-11-09T00:10:56.477Z,81.33
2017-11-09T00:13:38.843Z,82.27
2017-11-09T00:16:16.289Z,83.10
2017-11-09T00:18:53.805Z,82.93
2017-11-09T00:21:31.558Z,81.53
2017-11-09T00:24:09.877Z,83.30
2017-11-09T00:26:50.836Z,83.35
2017-11-09T00:29:27.856Z,82.85
2017-11-09T00:31:56.753Z,83.31
2017-11-09T00:34:33.901Z,84.11
2017-11-09T00:37:12.190Z,84.53
2017-11-09T00:39:49.551Z,84.44
2017-11-09T00:42:26.330Z,85.10
2017-11-09T00:45:04.951Z,85.64
2017-11-09T00:47:48.120Z,85.22
2017-11-09T00:50:27.571Z,85.09
2017-11-09T00:53:07.797Z,86.44
2017-11-09T00:55:45.338Z,86.92
2017-11-09T00:58:22.593Z,86.53
2017-11-09T01:00:59.654Z,86.26
2017-11-09T01:03:41.071Z,86.50
2017-11-09T01:06:18.373Z,86.05
2017-11-09T01:08:56.549Z,86.31
2017-11-09T01:11:35.648Z,86.45
2017-11-09T01:14:15.236Z,86.80
2017-11-09T01:16:54.316Z,87.20
2017-11-09T01:19:36.856Z,87.52
2017-11-09T01:22:14.111Z,87.61
2017-11-09T01:24:51.464Z,87.38
2017-11-09T01:27:32.746Z,87.39
2017-11-09T01:30:14.067Z,87.39
2017-11-09T01:32:51.123Z,87.50
2017-11-09T01:35:28.799Z,87.62
2017-11-09T01:38:07.879Z,87.35
2017-11-09T01:40:45.698Z,87.35
2017-11-09T01:43:22.850Z,87.56
2017-11-09T01:46:00.773Z,88.11
2017-11-09T01:48:37.823Z,88.57
2017-11-09T01:51:17.536Z,89.48
2017-11-09T01:53:54.654Z,90.21
2017-11-09T01:56:33.344Z,90.22
2017-11-09T01:59:15.035Z,90.43
2017-11-09T02:01:54.533Z,90.57
2017-11-09T02:04:33.812Z,91.65
2017-11-09T02:07:10.577Z,91.43
2017-11-09T02:09:49.771Z,91.18
2017-11-09T02:12:27.143Z,91.45
2017-11-09T02:15:04.060Z,91.26
2017-11-09T02:17:41.481Z,91.78
2017-11-09T02:20:22.761Z,91.82
2017-11-09T02:23:01.648Z,91.25
2017-11-09T02:25:38.854Z,91.24
2017-11-09T02:28:17.485Z,91.18
2017-11-09T02:30:54.955Z,90.77
2017-11-09T02:36:41.224Z,89.75
2017-11-09T02:39:18.306Z,89.43
2017-11-09T02:41:57.194Z,89.44
2017-11-09T02:44:36.096Z,89.40
2017-11-09T02:47:13.003Z,89.66
2017-11-09T02:49:54.380Z,89.78
2017-11-09T02:52:31.883Z,89.83
2017-11-09T02:55:08.898Z,89.51
2017-11-09T02:57:52.809Z,89.14
2017-11-09T03:00:30.140Z,89.26
2017-11-09T03:03:07.057Z,89.17
2017-11-09T03:05:44.073Z,89.03
2017-11-09T03:08:28.419Z,89.48
2017-11-09T03:11:05.751Z,89.70
2017-11-09T03:13:44.218Z,89.89
2017-11-09T03:16:21.648Z,88.91
2017-11-09T03:18:59.494Z,89.47
2017-11-09T03:21:36.966Z,89.55
2017-11-09T03:24:19.746Z,90.10
2017-11-09T03:26:58.285Z,89.72
2017-11-09T03:29:37.044Z,89.50
2017-11-09T03:32:13.713Z,89.27
2017-11-09T03:34:51.253Z,89.27
2017-11-09T03:37:28.768Z,88.88
2017-11-09T03:40:05.369Z,88.87
2017-11-09T03:42:44.074Z,88.55
2017-11-09T03:45:22.338Z,88.39
2017-11-09T03:47:59.068Z,88.25
2017-11-09T03:50:36.488Z,88.79
2017-11-09T03:53:13.621Z,88.94
2017-11-09T03:55:52.083Z,88.76
2017-11-09T03:58:28.693Z,88.57
2017-11-09T04:01:05.538Z,88.65
2017-11-09T04:03:44.737Z,88.97
2017-11-09T04:06:22.166Z,89.22
2017-11-09T04:08:59.754Z,89.04
2017-11-09T04:11:37.351Z,89.29
2017-11-09T04:14:16.558Z,89.26
2017-11-09T04:16:53.629Z,89.14
2017-11-09T04:19:30.923Z,88.80
2017-11-09T04:22:07.960Z,88.67
2017-11-09T04:24:44.793Z,88.52
2017-11-09T04:27:21.924Z,88.47
2017-11-09T04:29:59.995Z,88.17
2017-11-09T04:32:31.413Z,89.12
2017-11-09T04:35:08.114Z,88.97
2017-11-09T04:37:49.048Z,89.41
2017-11-09T04:40:27.179Z,89.49
2017-11-09T04:43:05.621Z,88.82
2017-11-09T04:45:48.362Z,88.79
2017-11-09T04:48:25.953Z,89.05
2017-11-09T04:51:02.791Z,89.56
2017-11-09T04:53:39.543Z,89.82
2017-11-09T04:56:16.432Z,90.11
2017-11-09T04:58:54.266Z,90.01
2017-11-09T05:01:33.035Z,90.15
2017-11-09T05:04:07.546Z,89.54
2017-11-09T05:06:44.146Z,89.33
2017-11-09T05:09:23.198Z,89.14
2017-11-09T05:12:00.111Z,89.50
2017-11-09T05:14:39.256Z,89.73
2017-11-09T05:17:16.188Z,89.45
2017-11-09T05:19:57.979Z,89.08
2017-11-09T05:22:36.511Z,89.45
2017-11-09T05:25:16.562Z,89.09
2017-11-09T05:27:57.994Z,89.07
2017-11-09T05:30:35.511Z,88.83
2017-11-09T05:33:12.593Z,88.73
2017-11-09T05:35:41.807Z,88.54
2017-11-09T05:38:19.012Z,88.58
2017-11-09T05:40:56.274Z,88.91
2017-11-09T05:43:35.307Z,88.54
2017-11-09T05:46:12.652Z,88.69
2017-11-09T05:48:49.501Z,88.18
2017-11-09T05:51:26.667Z,87.59
2017-11-09T05:54:03.414Z,86.02
2017-11-09T05:56:40.758Z,84.77
2017-11-09T05:59:17.475Z,84.58
2017-11-09T06:01:47.635Z,84.86
2017-11-09T06:04:24.690Z,84.48
2017-11-09T06:07:02.489Z,85.00
2017-11-09T06:09:39.784Z,85.21
2017-11-09T06:12:17.673Z,85.39
2017-11-09T06:14:54.884Z,86.64
2017-11-09T06:17:32.429Z,86.01
2017-11-09T06:20:09.183Z,86.58
2017-11-09T06:22:46.695Z,86.64
2017-11-09T06:25:23.553Z,86.25
2017-11-09T06:28:00.578Z,86.34
2017-11-09T06:30:39.713Z,87.50
2017-11-09T06:33:09.448Z,88.43
2017-11-09T06:35:45.923Z,87.37
2017-11-09T06:38:25.013Z,87.42
2017-11-09T06:40:57.222Z,86.79
2017-11-09T06:43:33.983Z,86.38
2017-11-09T06:46:10.506Z,86.04
2017-11-09T06:48:48.211Z,85.12
2017-11-09T06:51:25.417Z,84.62
2017-11-09T06:54:06.010Z,84.65
2017-11-09T06:56:43.516Z,83.89
2017-11-09T06:59:20.664Z,82.37
2017-11-09T07:01:57.750Z,82.58
2017-11-09T07:04:35.394Z,83.08
2017-11-09T07:07:12.545Z,82.29
2017-11-09T07:09:50.395Z,82.60
2017-11-09T07:12:27.496Z,82.76
2017-11-09T07:15:05.327Z,82.41
2017-11-09T07:17:44.562Z,81.70
2017-11-09T07:20:22.073Z,81.68
2017-11-09T07:22:58.802Z,81.51
2017-11-09T07:25:35.741Z,81.37
2017-11-09T07:28:12.593Z,81.52
2017-11-09T07:30:51.541Z,82.40
2017-11-09T07:33:20.560Z,82.43
2017-11-09T07:36:01.682Z,82.35
2017-11-09T07:38:38.943Z,82.85
2017-11-09T07:41:17.377Z,82.77
2017-11-09T07:43:50.065Z,82.32
2017-11-09T07:46:27.241Z,83.36
2017-11-09T07:49:04.055Z,84.36
2017-11-09T07:51:41.355Z,84.49
2017-11-09T07:54:18.391Z,84.67
2017-11-09T07:56:56.169Z,84.67
2017-11-09T07:59:32.683Z,83.28
2017-11-09T08:02:09.813Z,82.48
2017-11-09T08:04:47.240Z,82.15
2017-11-09T08:07:24.433Z,82.08
2017-11-09T08:10:01.073Z,82.13
2017-11-09T08:12:39.428Z,82.12
2017-11-09T08:15:17.118Z,81.15
2017-11-09T08:17:59.626Z,80.88
2017-11-09T08:20:36.506Z,80.21
2017-11-09T08:23:13.781Z,79.03
2017-11-09T08:25:50.891Z,77.64
2017-11-09T08:28:30.078Z,77.78
2017-11-09T08:31:10.290Z,77.55
2017-11-09T08:33:43.440Z,78.06
2017-11-09T08:36:12.410Z,78.25
2017-11-09T08:38:54.967Z,77.95
2017-11-09T08:41:32.300Z,77.17
2017-11-09T08:44:02.190Z,77.23
2017-11-09T08:46:39.299Z,77.29
2017-11-09T08:49:16.210Z,78.30
2017-11-09T08:51:53.267Z,78.76
2017-11-09T08:54:30.950Z,78.69
2017-11-09T08:57:08.026Z,79.17
2017-11-09T08:59:45.014Z,80.88
2017-11-09T09:02:21.980Z,82.40
2017-11-09T09:05:04.571Z,82.32
2017-11-09T09:07:41.959Z,81.15
2017-11-09T09:10:19.879Z,82.01
2017-11-09T09:12:57.072Z,84.31
2017-11-09T09:15:26.149Z,84.45
2017-11-09T09:18:07.652Z,85.88
2017-11-09T09:20:50.373Z,86.97
2017-11-09T09:23:29.996Z,87.47
2017-11-09T09:26:12.375Z,85.74
2017-11-09T09:32:01.582Z,84.40
2017-11-09T09:38:06.369Z,84.74
2017-11-09T09:40:44.828Z,84.72
2017-11-09T09:43:28.470Z,84.13
2017-11-09T09:46:05.019Z,84.68
2017-11-09T09:48:43.616Z,85.12
2017-11-09T09:51:20.540Z,84.03
2017-11-09T09:53:51.513Z,83.55
2017-11-09T09:56:20.417Z,82.70
2017-11-09T09:58:57.809Z,81.81
2017-11-09T10:01:34.575Z,81.20
2017-11-09T10:04:13.541Z,80.22
2017-11-09T10:06:50.532Z,80.27
2017-11-09T10:09:27.284Z,80.82
2017-11-09T10:12:04.287Z,80.33
2017-11-09T10:14:40.998Z,81.23
2017-11-09T10:17:19.849Z,80.76
2017-11-09T10:19:58.322Z,79.90
2017-11-09T10:22:35.307Z,81.62
2017-11-09T10:25:15.673Z,80.97
2017-11-09T10:27:52.799Z,80.98
2017-11-09T10:30:29.510Z,80.31
2017-11-09T10:33:01.156Z,80.09
2017-11-09T10:35:39.056Z,79.92
2017-11-09T10:38:16.308Z,79.13
2017-11-09T10:40:54.079Z,79.02
2017-11-09T10:43:35.629Z,79.48
2017-11-09T10:46:13.871Z,79.43
2017-11-09T10:48:42.811Z,79.83
2017-11-09T10:51:22.704Z,80.68
2017-11-09T10:53:59.259Z,80.75
2017-11-09T10:56:36.329Z,80.99
2017-11-09T10:59:12.859Z,80.83
2017-11-09T11:01:52.604Z,80.74
2017-11-09T11:04:29.589Z,80.46
2017-11-09T11:07:08.803Z,82.23
2017-11-09T11:09:46.193Z,81.79
2017-11-09T11:12:26.178Z,81.32
2017-11-09T11:15:03.119Z,81.56
2017-11-09T11:17:40.181Z,81.11
2017-11-09T11:20:17.695Z,80.13
2017-11-09T11:22:55.711Z,79.78
2017-11-09T11:25:34.002Z,80.15
2017-11-09T11:28:11.250Z,80.49
2017-11-09T11:30:49.746Z,80.13
2017-11-09T11:33:27.986Z,80.33
2017-11-09T11:36:04.506Z,80.22
2017-11-09T11:38:42.210Z,79.31
2017-11-09T11:41:19.036Z,79.89
2017-11-09T11:43:57.675Z,79.43
2017-11-09T11:46:36.870Z,79.34
2017-11-09T11:49:13.565Z,78.01
2017-11-09T11:51:50.390Z,77.95
2017-11-09T11:54:28.192Z,77.61
2017-11-09T11:57:05.319Z,77.84
2017-11-09T11:59:49.684Z,79.12
2017-11-09T12:02:26.524Z,79.54
2017-11-09T12:05:03.459Z,78.70
2017-11-09T12:07:40.373Z,78.55
2017-11-09T12:10:21.515Z,79.25
2017-11-09T12:12:50.346Z,80.04
2017-11-09T12:15:29.233Z,81.24
2017-11-09T12:18:06.671Z,81.32
2017-11-09T12:20:46.464Z,80.77
2017-11-09T12:23:23.677Z,79.66
2017-11-09T12:26:02.692Z,78.60
2017-11-09T12:28:39.330Z,77.72
2017-11-09T12:31:18.189Z,78.19
2017-11-09T12:33:47.054Z,78.66
2017-11-09T12:36:24.226Z,78.40
2017-11-09T12:39:01.402Z,78.81
2017-11-09T12:41:39.721Z,79.28
2017-11-09T12:44:16.245Z,79.37
2017-11-09T12:46:55.458Z,81.00
2017-11-09T12:49:32.190Z,80.57
2017-11-09T12:52:08.996Z,80.79
2017-11-09T12:54:45.615Z,81.88
2017-11-09T13:00:07.263Z,81.61
2017-11-09T13:02:43.946Z,81.61
2017-11-09T13:05:22.813Z,82.33
2017-11-09T13:08:00.317Z,82.60
2017-11-09T13:10:37.163Z,82.98
2017-11-09T13:13:14.888Z,83.38
2017-11-09T13:15:51.867Z,84.10
2017-11-09T13:18:28.711Z,84.71
2017-11-09T13:21:05.518Z,85.23
2017-11-09T13:23:42.593Z,85.29
2017-11-09T13:26:20.143Z,85.50
2017-11-09T13:28:58.819Z,85.06
2017-11-09T13:31:35.844Z,86.07
2017-11-09T13:34:14.445Z,86.23
2017-11-09T13:36:51.082Z,86.20
2017-11-09T13:39:27.809Z,86.20
2017-11-09T13:42:04.394Z,85.40
2017-11-09T13:44:41.644Z,85.51
2017-11-09T13:47:19.761Z,86.09
2017-11-09T13:49:57.123Z,86.96
2017-11-09T13:52:33.634Z,86.50
2017-11-09T13:55:12.349Z,86.51
2017-11-09T13:57:49.434Z,87.96
2017-11-09T14:00:29.122Z,88.45
2017-11-09T14:03:05.743Z,89.17
2017-11-09T14:05:44.010Z,89.42
2017-11-09T14:08:20.528Z,89.57
2017-11-09T14:11:01.758Z,89.53
2017-11-09T14:13:42.907Z,90.06
2017-11-09T14:16:20.017Z,89.92
2017-11-09T14:19:01.254Z,89.79
2017-11-09T14:21:43.932Z,89.46
2017-11-09T14:24:21.156Z,88.90
2017-11-09T14:26:59.983Z,89.10
2017-11-09T14:29:41.398Z,88.80
2017-11-09T14:35:20.544Z,89.28
2017-11-09T14:37:49.415Z,89.74
2017-11-09T14:40:26.494Z,89.64
2017-11-09T14:43:02.971Z,90.17
2017-11-09T14:45:41.145Z,90.55
2017-11-09T14:48:17.961Z,90.81
2017-11-09T14:50:56.273Z,90.61
2017-11-09T14:53:33.539Z,90.57
2017-11-09T14:56:10.687Z,90.25
2017-11-09T14:58:47.605Z,90.62
2017-11-09T15:01:25.615Z,90.71
2017-11-09T15:04:02.294Z,90.96
2017-11-09T15:06:39.990Z,90.67
2017-11-09T15:09:17.554Z,90.90
2017-11-09T15:11:56.607Z,90.54
2017-11-09T15:14:33.496Z,90.46
2017-11-09T15:17:14.194Z,90.08
2017-11-09T15:19:51.232Z,90.39
2017-11-09T15:22:28.493Z,90.58
2017-11-09T15:25:06.017Z,90.19
2017-11-09T15:27:42.690Z,89.67
2017-11-09T15:30:19.340Z,88.96
2017-11-09T15:32:57.191Z,88.76
2017-11-09T15:35:36.532Z,89.16
2017-11-09T15:38:13.954Z,89.47
2017-11-09T15:40:50.971Z,89.37
2017-11-09T15:43:32.607Z,89.58
2017-11-09T15:46:09.780Z,89.33
2017-11-09T15:48:48.721Z,88.95
2017-11-09T15:51:30.029Z,87.87
2017-11-09T15:54:09.679Z,88.74
2017-11-09T15:56:46.959Z,81.86
2017-11-09T15:59:27.403Z,78.97
2017-11-09T16:02:04.470Z,80.56
2017-11-09T16:04:41.903Z,82.16
2017-11-09T16:07:22.567Z,84.71
2017-11-09T16:10:01.536Z,85.90
2017-11-09T16:12:40.592Z,87.47
2017-11-09T16:15:17.842Z,88.19
2017-11-09T16:18:00.298Z,87.55
2017-11-09T16:20:40.062Z,87.52
2017-11-09T16:23:17.488Z,87.74
2017-11-09T16:25:56.642Z,88.12
2017-11-09T16:28:33.140Z,87.37
2017-11-09T16:31:11.238Z,86.94
2017-11-09T16:33:40.077Z,86.24
2017-11-09T16:36:19.596Z,86.27
2017-11-09T16:38:56.140Z,86.30
2017-11-09T16:41:33.744Z,86.00
2017-11-09T16:44:10.675Z,85.64
2017-11-09T16:46:48.791Z,85.29
2017-11-09T16:49:26.314Z,84.94
2017-11-09T16:52:03.123Z,84.83
2017-11-09T16:54:40.154Z,84.92
2017-11-09T16:57:18.242Z,84.18
2017-11-09T16:59:47.231Z,84.71
2017-11-09T17:02:16.563Z,84.25
2017-11-09T17:04:50.893Z,85.17
2017-11-09T17:07:28.514Z,85.00
2017-11-09T17:10:07.097Z,84.27
2017-11-09T17:12:43.976Z,85.23
2017-11-09T17:15:26.016Z,85.12
2017-11-09T17:18:13.393Z,85.85
2017-11-09T17:20:42.318Z,86.88
2017-11-09T17:23:23.665Z,86.72
2017-11-09T17:26:02.046Z,86.06
2017-11-09T17:28:39.028Z,86.01
2017-11-09T17:31:28.137Z,85.36
2017-11-09T17:34:09.545Z,85.83
2017-11-09T17:36:48.761Z,86.39
2017-11-09T17:39:27.105Z,86.03
2017-11-09T17:42:07.835Z,85.28
2017-11-09T17:44:36.839Z,84.44
2017-11-09T17:47:14.626Z,83.44
2017-11-09T17:49:51.789Z,83.73
2017-11-09T17:52:29.040Z,84.10
2017-11-09T17:55:06.299Z,84.68
2017-11-09T17:57:49.404Z,84.34
2017-11-09T18:00:26.847Z,84.62
2017-11-09T18:03:08.722Z,85.56
2017-11-09T18:05:46.370Z,85.92
2017-11-09T18:08:24.834Z,87.55
2017-11-09T18:11:01.984Z,87.60
2017-11-09T18:13:40.710Z,86.97
2017-11-09T18:16:18.853Z,86.70
2017-11-09T18:18:57.292Z,86.66
2017-11-09T18:21:34.307Z,86.72
2017-11-09T18:24:11.477Z,86.12
2017-11-09T18:26:48.271Z,85.95
2017-11-09T18:29:28.496Z,86.06
2017-11-09T18:35:06.567Z,88.00
2017-11-09T18:37:43.467Z,88.14
2017-11-09T18:40:20.817Z,88.71
2017-11-09T18:42:57.691Z,89.18
2017-11-09T18:45:40.334Z,88.75
2017-11-09T18:48:17.468Z,88.64
2017-11-09T18:50:54.834Z,88.38
2017-11-09T18:53:31.690Z,88.35
2017-11-09T18:56:08.567Z,88.33
2017-11-09T18:58:51.853Z,88.84
2017-11-09T19:01:29.628Z,88.24
2017-11-09T19:04:06.571Z,87.90
2017-11-09T19:06:43.749Z,87.72
2017-11-09T19:09:27.604Z,87.69
2017-11-09T19:11:59.134Z,87.70
2017-11-09T19:14:40.696Z,88.58
2017-11-09T19:17:17.576Z,88.10
2017-11-09T19:20:06.346Z,87.96
2017-11-09T19:22:54.113Z,88.35
2017-11-09T19:25:32.692Z,87.63
2017-11-09T19:28:10.473Z,87.62
2017-11-09T19:31:02.268Z,87.62
2017-11-09T19:33:40.150Z,88.17
2017-11-09T19:36:16.945Z,88.05
2017-11-09T19:38:55.771Z,88.28
2017-11-09T19:41:37.220Z,88.33
2017-11-09T19:44:15.662Z,88.01
2017-11-09T19:46:54.895Z,87.72
2017-11-09T19:49:38.235Z,87.59
2017-11-09T19:52:15.780Z,87.38
2017-11-09T19:54:52.513Z,87.30
2017-11-09T19:57:31.501Z,87.22
2017-11-09T20:00:09.550Z,87.40
2017-11-09T20:02:38.717Z,87.50
2017-11-09T20:05:15.748Z,87.61
2017-11-09T20:07:52.584Z,87.54
2017-11-09T20:10:34.138Z,87.71
2017-11-09T20:13:11.443Z,87.90
2017-11-09T20:15:48.611Z,88.11
2017-11-09T20:18:30.237Z,87.71
2017-11-09T20:21:08.011Z,87.01
2017-11-09T20:23:46.780Z,86.61
2017-11-09T20:26:25.762Z,86.50
2017-11-09T20:29:02.574Z,85.54
2017-11-09T20:31:42.360Z,85.62
2017-11-09T20:34:11.916Z,86.28
2017-11-09T20:36:49.030Z,85.99
2017-11-09T20:39:19.976Z,86.33
2017-11-09T20:41:50.787Z,86.82
2017-11-09T20:44:27.941Z,86.78
2017-11-09T20:47:05.124Z,87.67
2017-11-09T20:49:42.928Z,88.09
2017-11-09T20:52:22.263Z,88.01
2017-11-09T20:54:59.019Z,88.25
2017-11-09T20:57:37.367Z,88.32
2017-11-09T21:00:14.505Z,88.72
2017-11-09T21:02:56.968Z,88.77
2017-11-09T21:05:36.077Z,88.79
2017-11-09T21:08:18.488Z,88.54
2017-11-09T21:17:06.694Z,89.13
2017-11-09T21:19:48.161Z,88.70
2017-11-09T21:25:33.961Z,88.71
2017-11-09T21:31:03.645Z,88.89
2017-11-09T21:39:33.374Z,88.09
2017-11-09T21:48:02.717Z,89.83
2017-11-09T21:53:42.529Z,89.67
2017-11-09T21:56:21.386Z,89.09
2017-11-09T21:58:59.455Z,88.72
2017-11-09T22:01:38.040Z,88.90
2017-11-09T22:04:08.209Z,88.50
2017-11-09T22:06:50.278Z,88.61
2017-11-09T22:09:29.979Z,88.46
2017-11-09T22:12:07.467Z,89.18
2017-11-09T22:17:39.428Z,89.31
2017-11-09T22:23:08.742Z,89.30
2017-11-09T22:25:54.139Z,89.11
2017-11-09T22:28:36.241Z,88.46
2017-11-09T22:31:19.139Z,88.93
